sensor_id;sensor_type;location;lat;lon;timestamp;P1;durP1;ratioP1;P2;durP2;ratioP2
3066;SDS011;1544;48.834;9.194;2022-11-15T00:00:50;3.40;;;3.10;;
3066;SDS011;1544;48.834;9.194;2022-11-15T00:03:44;3.13;;;2.83;;
3066;SDS011;1544;48.834;9.194;2022-11-15T00:06:38;3.90;;;2.87;;
3066;SDS011;1544;48.834;9.194;2022-11-15T00:09:32;2.50;;;2.30;;
3066;SDS011;1544;48.834;9.194;2022-11-15T00:12:27;4.20;;;2.20;;
3066;SDS011;1544;48.834;9.194;2022-11-15T00:15:21;2.70;;;2.50;;
3066;SDS011;1544;48.834;9.194;2022-11-15T00:18:15;3.13;;;2.13;;
3066;SDS011;1544;48.834;9.194;2022-11-15T00:21:12;2.33;;;2.13;;
3066;SDS011;1544;48.834;9.194;2022-11-15T00:24:06;2.43;;;2.23;;
3066;SDS011;1544;48.834;9.194;2022-11-15T00:27:00;2.20;;;2.10;;
3066;SDS011;1544;48.834;9.194;2022-11-15T00:29:54;2.60;;;2.30;;
3066;SDS011;1544;48.834;9.194;2022-11-15T00:32:47;2.50;;;1.83;;
3066;SDS011;1544;48.834;9.194;2022-11-15T00:35:41;3.30;;;1.80;;
3066;SDS011;1544;48.834;9.194;2022-11-15T00:38:36;2.00;;;1.90;;
3066;SDS011;1544;48.834;9.194;2022-11-15T00:41:32;1.80;;;1.70;;
3066;SDS011;1544;48.834;9.194;2022-11-15T00:44:25;2.43;;;2.23;;
3066;SDS011;1544;48.834;9.194;2022-11-15T00:47:19;2.43;;;1.90;;
3066;SDS011;1544;48.834;9.194;2022-11-15T00:50:13;2.20;;;2.00;;
3066;SDS011;1544;48.834;9.194;2022-11-15T00:53:07;2.50;;;1.80;;
3066;SDS011;1544;48.834;9.194;2022-11-15T00:56:00;2.47;;;2.17;;
3066;SDS011;1544;48.834;9.194;2022-11-15T00:58:54;1.97;;;1.87;;
3066;SDS011;1544;48.834;9.194;2022-11-15T01:01:47;2.30;;;2.10;;
3066;SDS011;1544;48.834;9.194;2022-11-15T01:04:41;5.60;;;4.50;;
3066;SDS011;1544;48.834;9.194;2022-11-15T01:07:34;5.47;;;4.40;;
3066;SDS011;1544;48.834;9.194;2022-11-15T01:10:28;3.20;;;2.90;;
3066;SDS011;1544;48.834;9.194;2022-11-15T01:13:22;2.47;;;2.20;;
3066;SDS011;1544;48.834;9.194;2022-11-15T01:16:16;2.80;;;2.60;;
3066;SDS011;1544;48.834;9.194;2022-11-15T01:19:11;3.20;;;2.73;;
3066;SDS011;1544;48.834;9.194;2022-11-15T01:22:05;2.80;;;2.60;;
3066;SDS011;1544;48.834;9.194;2022-11-15T01:24:58;2.83;;;2.63;;
3066;SDS011;1544;48.834;9.194;2022-11-15T01:27:52;3.00;;;2.43;;
3066;SDS011;1544;48.834;9.194;2022-11-15T01:30:45;4.70;;;2.60;;
3066;SDS011;1544;48.834;9.194;2022-11-15T01:33:39;2.60;;;2.40;;
3066;SDS011;1544;48.834;9.194;2022-11-15T01:36:32;3.17;;;2.90;;
3066;SDS011;1544;48.834;9.194;2022-11-15T01:39:26;3.10;;;2.13;;
3066;SDS011;1544;48.834;9.194;2022-11-15T01:42:20;2.50;;;2.30;;
3066;SDS011;1544;48.834;9.194;2022-11-15T01:45:14;2.70;;;2.27;;
3066;SDS011;1544;48.834;9.194;2022-11-15T01:48:08;3.17;;;2.40;;
3066;SDS011;1544;48.834;9.194;2022-11-15T01:51:04;2.40;;;2.20;;
3066;SDS011;1544;48.834;9.194;2022-11-15T01:54:06;2.27;;;2.07;;
3066;SDS011;1544;48.834;9.194;2022-11-15T01:57:06;2.33;;;2.10;;
3066;SDS011;1544;48.834;9.194;2022-11-15T02:00:04;2.50;;;2.00;;
3066;SDS011;1544;48.834;9.194;2022-11-15T02:02:58;2.63;;;2.17;;
3066;SDS011;1544;48.834;9.194;2022-11-15T02:05:52;2.40;;;2.20;;
3066;SDS011;1544;48.834;9.194;2022-11-15T02:08:46;2.43;;;2.23;;
3066;SDS011;1544;48.834;9.194;2022-11-15T02:11:40;2.47;;;2.20;;
3066;SDS011;1544;48.834;9.194;2022-11-15T02:14:34;2.43;;;2.23;;
3066;SDS011;1544;48.834;9.194;2022-11-15T02:20:55;1.97;;;1.77;;
3066;SDS011;1544;48.834;9.194;2022-11-15T02:30:29;3.20;;;2.17;;
3066;SDS011;1544;48.834;9.194;2022-11-15T02:33:28;4.23;;;2.63;;
3066;SDS011;1544;48.834;9.194;2022-11-15T02:40:26;2.13;;;1.90;;
3066;SDS011;1544;48.834;9.194;2022-11-15T02:43:40;3.87;;;3.27;;
3066;SDS011;1544;48.834;9.194;2022-11-15T02:46:53;4.90;;;3.50;;
3066;SDS011;1544;48.834;9.194;2022-11-15T02:50:10;5.23;;;4.80;;
3066;SDS011;1544;48.834;9.194;2022-11-15T02:53:09;6.03;;;4.93;;
3066;SDS011;1544;48.834;9.194;2022-11-15T02:56:02;6.60;;;6.00;;
3066;SDS011;1544;48.834;9.194;2022-11-15T02:59:02;10.50;;;5.90;;
3066;SDS011;1544;48.834;9.194;2022-11-15T03:02:18;5.60;;;4.90;;
3066;SDS011;1544;48.834;9.194;2022-11-15T03:09:02;6.37;;;5.00;;
3066;SDS011;1544;48.834;9.194;2022-11-15T03:12:23;5.67;;;4.70;;
3066;SDS011;1544;48.834;9.194;2022-11-15T03:15:32;4.83;;;4.43;;
3066;SDS011;1544;48.834;9.194;2022-11-15T03:18:38;5.10;;;4.53;;
3066;SDS011;1544;48.834;9.194;2022-11-15T03:21:37;8.13;;;5.40;;
3066;SDS011;1544;48.834;9.194;2022-11-15T03:24:33;5.43;;;4.87;;
3066;SDS011;1544;48.834;9.194;2022-11-15T03:27:35;5.43;;;4.93;;
3066;SDS011;1544;48.834;9.194;2022-11-15T03:30:34;7.30;;;4.90;;
3066;SDS011;1544;48.834;9.194;2022-11-15T03:33:32;5.03;;;4.53;;
3066;SDS011;1544;48.834;9.194;2022-11-15T03:36:25;4.97;;;4.23;;
3066;SDS011;1544;48.834;9.194;2022-11-15T03:39:20;5.63;;;4.70;;
3066;SDS011;1544;48.834;9.194;2022-11-15T03:42:20;6.37;;;4.07;;
3066;SDS011;1544;48.834;9.194;2022-11-15T03:45:22;7.73;;;4.57;;
3066;SDS011;1544;48.834;9.194;2022-11-15T03:48:22;5.73;;;4.30;;
3066;SDS011;1544;48.834;9.194;2022-11-15T03:51:20;6.07;;;4.63;;
3066;SDS011;1544;48.834;9.194;2022-11-15T03:54:14;4.13;;;3.73;;
3066;SDS011;1544;48.834;9.194;2022-11-15T03:57:07;5.17;;;4.67;;
3066;SDS011;1544;48.834;9.194;2022-11-15T04:00:01;5.30;;;4.00;;
3066;SDS011;1544;48.834;9.194;2022-11-15T04:02:58;4.43;;;4.00;;
3066;SDS011;1544;48.834;9.194;2022-11-15T04:05:52;4.80;;;4.30;;
3066;SDS011;1544;48.834;9.194;2022-11-15T04:08:45;4.67;;;4.27;;
3066;SDS011;1544;48.834;9.194;2022-11-15T04:11:39;4.20;;;3.90;;
3066;SDS011;1544;48.834;9.194;2022-11-15T04:14:33;3.97;;;3.67;;
3066;SDS011;1544;48.834;9.194;2022-11-15T04:17:26;7.73;;;4.43;;
3066;SDS011;1544;48.834;9.194;2022-11-15T04:20:21;3.53;;;3.23;;
3066;SDS011;1544;48.834;9.194;2022-11-15T04:23:36;6.80;;;4.20;;
3066;SDS011;1544;48.834;9.194;2022-11-15T04:26:59;4.57;;;3.30;;
3066;SDS011;1544;48.834;9.194;2022-11-15T04:29:52;5.03;;;4.33;;
3066;SDS011;1544;48.834;9.194;2022-11-15T04:32:46;8.47;;;3.87;;
3066;SDS011;1544;48.834;9.194;2022-11-15T04:35:40;4.73;;;3.97;;
3066;SDS011;1544;48.834;9.194;2022-11-15T04:38:36;5.27;;;4.33;;
3066;SDS011;1544;48.834;9.194;2022-11-15T04:41:30;5.80;;;4.20;;
3066;SDS011;1544;48.834;9.194;2022-11-15T04:44:23;4.87;;;3.50;;
3066;SDS011;1544;48.834;9.194;2022-11-15T04:47:17;4.80;;;4.40;;
3066;SDS011;1544;48.834;9.194;2022-11-15T04:50:12;5.73;;;4.43;;
3066;SDS011;1544;48.834;9.194;2022-11-15T04:53:07;6.43;;;4.00;;
3066;SDS011;1544;48.834;9.194;2022-11-15T04:56:01;6.07;;;4.30;;
3066;SDS011;1544;48.834;9.194;2022-11-15T04:58:54;6.27;;;4.33;;
3066;SDS011;1544;48.834;9.194;2022-11-15T05:01:48;4.70;;;3.70;;
3066;SDS011;1544;48.834;9.194;2022-11-15T05:04:41;4.70;;;4.30;;
3066;SDS011;1544;48.834;9.194;2022-11-15T05:07:35;4.53;;;3.77;;
3066;SDS011;1544;48.834;9.194;2022-11-15T05:10:31;4.00;;;3.60;;
3066;SDS011;1544;48.834;9.194;2022-11-15T05:13:25;3.80;;;3.50;;
3066;SDS011;1544;48.834;9.194;2022-11-15T05:16:19;4.30;;;3.90;;
3066;SDS011;1544;48.834;9.194;2022-11-15T05:19:12;6.03;;;4.00;;
3066;SDS011;1544;48.834;9.194;2022-11-15T05:22:06;4.27;;;3.73;;
3066;SDS011;1544;48.834;9.194;2022-11-15T05:24:59;5.87;;;4.20;;
3066;SDS011;1544;48.834;9.194;2022-11-15T05:27:53;5.10;;;4.60;;
3066;SDS011;1544;48.834;9.194;2022-11-15T05:30:46;6.40;;;5.20;;
3066;SDS011;1544;48.834;9.194;2022-11-15T05:33:40;5.13;;;4.40;;
3066;SDS011;1544;48.834;9.194;2022-11-15T05:36:37;4.73;;;4.33;;
3066;SDS011;1544;48.834;9.194;2022-11-15T05:39:35;4.83;;;3.83;;
3066;SDS011;1544;48.834;9.194;2022-11-15T05:42:28;4.70;;;3.87;;
3066;SDS011;1544;48.834;9.194;2022-11-15T05:45:23;4.40;;;4.00;;
3066;SDS011;1544;48.834;9.194;2022-11-15T05:48:19;3.80;;;3.50;;
3066;SDS011;1544;48.834;9.194;2022-11-15T05:51:13;3.70;;;3.40;;
3066;SDS011;1544;48.834;9.194;2022-11-15T05:54:09;4.40;;;4.00;;
3066;SDS011;1544;48.834;9.194;2022-11-15T05:57:04;4.90;;;3.40;;
3066;SDS011;1544;48.834;9.194;2022-11-15T05:59:57;5.50;;;4.37;;
3066;SDS011;1544;48.834;9.194;2022-11-15T06:02:52;5.10;;;4.13;;
3066;SDS011;1544;48.834;9.194;2022-11-15T06:05:45;5.57;;;4.10;;
3066;SDS011;1544;48.834;9.194;2022-11-15T06:08:39;4.43;;;4.03;;
3066;SDS011;1544;48.834;9.194;2022-11-15T06:11:33;5.03;;;4.60;;
3066;SDS011;1544;48.834;9.194;2022-11-15T06:14:26;5.17;;;3.97;;
3066;SDS011;1544;48.834;9.194;2022-11-15T06:17:20;3.73;;;3.43;;
3066;SDS011;1544;48.834;9.194;2022-11-15T06:20:14;3.03;;;2.73;;
3066;SDS011;1544;48.834;9.194;2022-11-15T06:23:07;3.00;;;2.70;;
3066;SDS011;1544;48.834;9.194;2022-11-15T06:26:01;4.17;;;3.40;;
3066;SDS011;1544;48.834;9.194;2022-11-15T06:28:56;3.73;;;2.97;;
3066;SDS011;1544;48.834;9.194;2022-11-15T06:31:49;3.47;;;2.70;;
3066;SDS011;1544;48.834;9.194;2022-11-15T06:34:42;3.73;;;3.33;;
3066;SDS011;1544;48.834;9.194;2022-11-15T06:37:36;3.20;;;3.00;;
3066;SDS011;1544;48.834;9.194;2022-11-15T06:40:30;3.43;;;3.00;;
3066;SDS011;1544;48.834;9.194;2022-11-15T06:43:26;2.27;;;2.17;;
3066;SDS011;1544;48.834;9.194;2022-11-15T06:46:19;7.50;;;6.00;;
3066;SDS011;1544;48.834;9.194;2022-11-15T06:49:13;6.00;;;5.40;;
3066;SDS011;1544;48.834;9.194;2022-11-15T06:52:07;4.50;;;4.10;;
3066;SDS011;1544;48.834;9.194;2022-11-15T06:55:00;4.27;;;3.57;;
3066;SDS011;1544;48.834;9.194;2022-11-15T06:57:54;2.70;;;2.50;;
3066;SDS011;1544;48.834;9.194;2022-11-15T07:00:47;2.70;;;2.27;;
3066;SDS011;1544;48.834;9.194;2022-11-15T07:03:41;3.80;;;2.60;;
3066;SDS011;1544;48.834;9.194;2022-11-15T07:06:35;4.67;;;3.43;;
3066;SDS011;1544;48.834;9.194;2022-11-15T07:09:29;3.47;;;3.00;;
3066;SDS011;1544;48.834;9.194;2022-11-15T07:12:22;3.93;;;3.20;;
3066;SDS011;1544;48.834;9.194;2022-11-15T07:15:16;3.97;;;3.67;;
3066;SDS011;1544;48.834;9.194;2022-11-15T07:18:11;3.20;;;2.90;;
3066;SDS011;1544;48.834;9.194;2022-11-15T07:21:07;4.57;;;3.70;;
3066;SDS011;1544;48.834;9.194;2022-11-15T07:24:03;4.73;;;4.23;;
3066;SDS011;1544;48.834;9.194;2022-11-15T07:26:57;5.13;;;4.07;;
3066;SDS011;1544;48.834;9.194;2022-11-15T07:29:51;5.80;;;4.80;;
3066;SDS011;1544;48.834;9.194;2022-11-15T07:32:44;6.20;;;4.60;;
3066;SDS011;1544;48.834;9.194;2022-11-15T07:35:39;4.17;;;3.70;;
3066;SDS011;1544;48.834;9.194;2022-11-15T07:38:33;5.13;;;4.47;;
3066;SDS011;1544;48.834;9.194;2022-11-15T07:41:35;4.83;;;4.30;;
3066;SDS011;1544;48.834;9.194;2022-11-15T07:44:28;4.67;;;4.37;;
3066;SDS011;1544;48.834;9.194;2022-11-15T07:47:22;5.20;;;4.43;;
3066;SDS011;1544;48.834;9.194;2022-11-15T07:50:15;7.40;;;3.97;;
3066;SDS011;1544;48.834;9.194;2022-11-15T07:53:09;8.70;;;5.97;;
3066;SDS011;1544;48.834;9.194;2022-11-15T07:56:05;9.53;;;5.47;;
3066;SDS011;1544;48.834;9.194;2022-11-15T07:59:00;5.30;;;4.80;;
3066;SDS011;1544;48.834;9.194;2022-11-15T08:01:54;9.60;;;5.90;;
3066;SDS011;1544;48.834;9.194;2022-11-15T08:04:47;6.00;;;5.40;;
3066;SDS011;1544;48.834;9.194;2022-11-15T08:07:41;7.73;;;5.50;;
3066;SDS011;1544;48.834;9.194;2022-11-15T08:10:34;5.30;;;4.80;;
3066;SDS011;1544;48.834;9.194;2022-11-15T08:13:32;6.40;;;5.27;;
3066;SDS011;1544;48.834;9.194;2022-11-15T08:16:26;7.90;;;6.20;;
3066;SDS011;1544;48.834;9.194;2022-11-15T08:19:20;8.87;;;5.53;;
3066;SDS011;1544;48.834;9.194;2022-11-15T08:22:14;7.33;;;5.10;;
3066;SDS011;1544;48.834;9.194;2022-11-15T08:25:07;8.63;;;6.00;;
3066;SDS011;1544;48.834;9.194;2022-11-15T08:28:02;5.63;;;5.13;;
3066;SDS011;1544;48.834;9.194;2022-11-15T08:30:57;6.80;;;5.53;;
3066;SDS011;1544;48.834;9.194;2022-11-15T08:33:51;6.20;;;5.60;;
3066;SDS011;1544;48.834;9.194;2022-11-15T08:36:44;6.60;;;5.50;;
3066;SDS011;1544;48.834;9.194;2022-11-15T08:39:38;6.03;;;5.10;;
3066;SDS011;1544;48.834;9.194;2022-11-15T08:42:31;5.97;;;5.40;;
3066;SDS011;1544;48.834;9.194;2022-11-15T08:45:25;5.07;;;4.57;;
3066;SDS011;1544;48.834;9.194;2022-11-15T08:48:19;10.33;;;5.63;;
3066;SDS011;1544;48.834;9.194;2022-11-15T08:51:12;6.93;;;5.20;;
3066;SDS011;1544;48.834;9.194;2022-11-15T08:54:06;8.03;;;6.17;;
3066;SDS011;1544;48.834;9.194;2022-11-15T08:56:59;7.37;;;6.60;;
3066;SDS011;1544;48.834;9.194;2022-11-15T08:59:53;7.43;;;5.47;;
3066;SDS011;1544;48.834;9.194;2022-11-15T09:02:46;6.63;;;5.90;;
3066;SDS011;1544;48.834;9.194;2022-11-15T09:05:40;5.83;;;4.97;;
3066;SDS011;1544;48.834;9.194;2022-11-15T09:08:33;6.13;;;5.53;;
3066;SDS011;1544;48.834;9.194;2022-11-15T09:11:42;5.60;;;4.60;;
3066;SDS011;1544;48.834;9.194;2022-11-15T09:14:35;6.50;;;5.13;;
3066;SDS011;1544;48.834;9.194;2022-11-15T09:17:29;6.07;;;5.47;;
3066;SDS011;1544;48.834;9.194;2022-11-15T09:20:23;5.37;;;4.50;;
3066;SDS011;1544;48.834;9.194;2022-11-15T09:23:16;7.57;;;5.10;;
3066;SDS011;1544;48.834;9.194;2022-11-15T09:26:10;4.93;;;4.37;;
3066;SDS011;1544;48.834;9.194;2022-11-15T09:29:03;5.27;;;4.03;;
3066;SDS011;1544;48.834;9.194;2022-11-15T09:31:57;5.43;;;4.50;;
3066;SDS011;1544;48.834;9.194;2022-11-15T09:34:50;4.17;;;3.87;;
3066;SDS011;1544;48.834;9.194;2022-11-15T09:37:44;3.57;;;3.30;;
3066;SDS011;1544;48.834;9.194;2022-11-15T09:40:38;5.00;;;3.40;;
3066;SDS011;1544;48.834;9.194;2022-11-15T09:43:32;3.03;;;2.83;;
3066;SDS011;1544;48.834;9.194;2022-11-15T09:46:51;5.07;;;4.67;;
3066;SDS011;1544;48.834;9.194;2022-11-15T09:50:14;4.93;;;4.47;;
3066;SDS011;1544;48.834;9.194;2022-11-15T09:53:08;6.03;;;4.77;;
3066;SDS011;1544;48.834;9.194;2022-11-15T09:55:51;4.63;;;4.23;;
3066;SDS011;1544;48.834;9.194;2022-11-15T09:58:43;4.93;;;4.17;;
3066;SDS011;1544;48.834;9.194;2022-11-15T10:04:13;4.60;;;4.07;;
3066;SDS011;1544;48.834;9.194;2022-11-15T10:06:52;6.90;;;4.50;;
3066;SDS011;1544;48.834;9.194;2022-11-15T10:10:04;4.53;;;4.13;;
3066;SDS011;1544;48.834;9.194;2022-11-15T10:13:02;4.80;;;4.03;;
3066;SDS011;1544;48.834;9.194;2022-11-15T10:15:38;6.23;;;3.37;;
3066;SDS011;1544;48.834;9.194;2022-11-15T10:24:28;5.27;;;4.80;;
3066;SDS011;1544;48.834;9.194;2022-11-15T10:27:11;4.90;;;4.50;;
3066;SDS011;1544;48.834;9.194;2022-11-15T10:29:50;5.67;;;4.50;;
3066;SDS011;1544;48.834;9.194;2022-11-15T10:32:25;6.47;;;4.70;;
3066;SDS011;1544;48.834;9.194;2022-11-15T10:35:01;4.00;;;3.70;;
3066;SDS011;1544;48.834;9.194;2022-11-15T10:38:09;4.50;;;3.40;;
3066;SDS011;1544;48.834;9.194;2022-11-15T10:40:45;5.50;;;4.17;;
3066;SDS011;1544;48.834;9.194;2022-11-15T10:43:20;8.40;;;4.80;;
3066;SDS011;1544;48.834;9.194;2022-11-15T10:45:55;4.80;;;3.93;;
3066;SDS011;1544;48.834;9.194;2022-11-15T10:49:23;6.40;;;4.80;;
3066;SDS011;1544;48.834;9.194;2022-11-15T10:57:37;4.90;;;3.80;;
3066;SDS011;1544;48.834;9.194;2022-11-15T11:03:20;3.57;;;3.27;;
3066;SDS011;1544;48.834;9.194;2022-11-15T11:06:15;5.40;;;4.17;;
3066;SDS011;1544;48.834;9.194;2022-11-15T11:11:49;4.00;;;3.60;;
3066;SDS011;1544;48.834;9.194;2022-11-15T11:14:26;4.50;;;4.07;;
3066;SDS011;1544;48.834;9.194;2022-11-15T11:20:29;5.30;;;3.90;;
3066;SDS011;1544;48.834;9.194;2022-11-15T11:38:15;4.63;;;4.10;;
3066;SDS011;1544;48.834;9.194;2022-11-15T11:47:24;4.47;;;3.87;;
3066;SDS011;1544;48.834;9.194;2022-11-15T11:50:15;4.40;;;4.00;;
3066;SDS011;1544;48.834;9.194;2022-11-15T11:53:00;6.20;;;4.83;;
3066;SDS011;1544;48.834;9.194;2022-11-15T11:55:47;4.77;;;3.90;;
3066;SDS011;1544;48.834;9.194;2022-11-15T11:58:31;6.43;;;4.43;;
3066;SDS011;1544;48.834;9.194;2022-11-15T12:04:10;5.00;;;3.63;;
3066;SDS011;1544;48.834;9.194;2022-11-15T12:09:43;4.50;;;2.70;;
3066;SDS011;1544;48.834;9.194;2022-11-15T12:13:00;5.37;;;3.23;;
3066;SDS011;1544;48.834;9.194;2022-11-15T12:15:56;5.33;;;3.83;;
3066;SDS011;1544;48.834;9.194;2022-11-15T12:18:46;4.90;;;3.63;;
3066;SDS011;1544;48.834;9.194;2022-11-15T12:21:36;4.07;;;3.00;;
3066;SDS011;1544;48.834;9.194;2022-11-15T12:24:24;5.10;;;3.60;;
3066;SDS011;1544;48.834;9.194;2022-11-15T12:30:11;25.33;;;3.93;;
3066;SDS011;1544;48.834;9.194;2022-11-15T12:32:57;4.33;;;3.10;;
3066;SDS011;1544;48.834;9.194;2022-11-15T12:35:41;3.97;;;2.80;;
3066;SDS011;1544;48.834;9.194;2022-11-15T12:38:49;3.40;;;2.63;;
3066;SDS011;1544;48.834;9.194;2022-11-15T12:41:39;3.50;;;2.90;;
3066;SDS011;1544;48.834;9.194;2022-11-15T12:49:45;4.03;;;3.60;;
3066;SDS011;1544;48.834;9.194;2022-11-15T12:52:21;5.33;;;3.50;;
3066;SDS011;1544;48.834;9.194;2022-11-15T12:54:57;5.37;;;3.80;;
3066;SDS011;1544;48.834;9.194;2022-11-15T12:57:35;5.00;;;3.87;;
3066;SDS011;1544;48.834;9.194;2022-11-15T13:02:49;4.80;;;4.40;;
3066;SDS011;1544;48.834;9.194;2022-11-15T13:08:45;3.73;;;3.03;;
3066;SDS011;1544;48.834;9.194;2022-11-15T13:14:45;5.20;;;3.60;;
3066;SDS011;1544;48.834;9.194;2022-11-15T13:17:30;3.63;;;3.33;;
3066;SDS011;1544;48.834;9.194;2022-11-15T13:22:53;4.20;;;3.57;;
3066;SDS011;1544;48.834;9.194;2022-11-15T13:28:52;4.17;;;3.50;;
3066;SDS011;1544;48.834;9.194;2022-11-15T13:31:36;4.63;;;3.67;;
3066;SDS011;1544;48.834;9.194;2022-11-15T13:34:24;4.00;;;3.70;;
3066;SDS011;1544;48.834;9.194;2022-11-15T13:40:10;4.43;;;3.67;;
3066;SDS011;1544;48.834;9.194;2022-11-15T13:43:19;4.63;;;4.23;;
3066;SDS011;1544;48.834;9.194;2022-11-15T13:49:07;11.30;;;4.90;;
3066;SDS011;1544;48.834;9.194;2022-11-15T13:54:26;5.03;;;4.20;;
3066;SDS011;1544;48.834;9.194;2022-11-15T13:57:09;6.77;;;4.37;;
3066;SDS011;1544;48.834;9.194;2022-11-15T13:59:55;4.87;;;4.13;;
3066;SDS011;1544;48.834;9.194;2022-11-15T14:02:46;6.50;;;4.87;;
3066;SDS011;1544;48.834;9.194;2022-11-15T14:05:22;9.03;;;5.20;;
3066;SDS011;1544;48.834;9.194;2022-11-15T14:08:01;7.33;;;5.67;;
3066;SDS011;1544;48.834;9.194;2022-11-15T14:11:05;6.43;;;5.70;;
3066;SDS011;1544;48.834;9.194;2022-11-15T14:16:46;8.87;;;5.90;;
3066;SDS011;1544;48.834;9.194;2022-11-15T14:22:21;7.33;;;5.80;;
3066;SDS011;1544;48.834;9.194;2022-11-15T14:28:07;17.57;;;10.57;;
3066;SDS011;1544;48.834;9.194;2022-11-15T14:30:48;22.80;;;11.43;;
3066;SDS011;1544;48.834;9.194;2022-11-15T14:36:10;13.33;;;9.27;;
3066;SDS011;1544;48.834;9.194;2022-11-15T14:38:49;7.67;;;6.40;;
3066;SDS011;1544;48.834;9.194;2022-11-15T14:41:25;8.00;;;6.33;;
3066;SDS011;1544;48.834;9.194;2022-11-15T14:44:09;9.07;;;5.03;;
3066;SDS011;1544;48.834;9.194;2022-11-15T14:46:46;11.67;;;5.10;;
3066;SDS011;1544;48.834;9.194;2022-11-15T14:49:22;6.60;;;4.90;;
3066;SDS011;1544;48.834;9.194;2022-11-15T14:51:57;4.97;;;4.30;;
3066;SDS011;1544;48.834;9.194;2022-11-15T14:54:33;5.30;;;4.57;;
3066;SDS011;1544;48.834;9.194;2022-11-15T14:57:11;6.83;;;4.80;;
3066;SDS011;1544;48.834;9.194;2022-11-15T14:59:46;5.30;;;4.10;;
3066;SDS011;1544;48.834;9.194;2022-11-15T15:02:24;4.43;;;4.10;;
3066;SDS011;1544;48.834;9.194;2022-11-15T15:05:01;5.30;;;4.63;;
3066;SDS011;1544;48.834;9.194;2022-11-15T15:07:48;8.00;;;5.27;;
3066;SDS011;1544;48.834;9.194;2022-11-15T15:10:24;7.23;;;4.47;;
3066;SDS011;1544;48.834;9.194;2022-11-15T15:13:18;5.10;;;3.70;;
3066;SDS011;1544;48.834;9.194;2022-11-15T15:15:56;5.27;;;4.07;;
3066;SDS011;1544;48.834;9.194;2022-11-15T15:18:31;4.13;;;3.83;;
3066;SDS011;1544;48.834;9.194;2022-11-15T15:21:17;5.03;;;4.27;;
3066;SDS011;1544;48.834;9.194;2022-11-15T15:23:57;6.57;;;5.20;;
3066;SDS011;1544;48.834;9.194;2022-11-15T15:26:32;6.23;;;5.37;;
3066;SDS011;1544;48.834;9.194;2022-11-15T15:29:11;5.77;;;5.17;;
3066;SDS011;1544;48.834;9.194;2022-11-15T15:31:47;6.27;;;4.33;;
3066;SDS011;1544;48.834;9.194;2022-11-15T15:34:22;3.93;;;3.53;;
3066;SDS011;1544;48.834;9.194;2022-11-15T15:39:58;5.33;;;3.70;;
3066;SDS011;1544;48.834;9.194;2022-11-15T15:42:34;6.20;;;4.33;;
3066;SDS011;1544;48.834;9.194;2022-11-15T15:45:09;4.73;;;3.80;;
3066;SDS011;1544;48.834;9.194;2022-11-15T15:47:45;4.70;;;4.30;;
3066;SDS011;1544;48.834;9.194;2022-11-15T15:53:01;4.70;;;3.80;;
3066;SDS011;1544;48.834;9.194;2022-11-15T15:55:38;4.40;;;4.00;;
3066;SDS011;1544;48.834;9.194;2022-11-15T15:58:13;6.00;;;4.27;;
3066;SDS011;1544;48.834;9.194;2022-11-15T16:00:48;4.73;;;4.33;;
3066;SDS011;1544;48.834;9.194;2022-11-15T16:03:23;5.50;;;3.67;;
3066;SDS011;1544;48.834;9.194;2022-11-15T16:05:58;4.87;;;4.37;;
3066;SDS011;1544;48.834;9.194;2022-11-15T16:08:33;3.60;;;3.30;;
3066;SDS011;1544;48.834;9.194;2022-11-15T16:11:28;3.33;;;3.03;;
3066;SDS011;1544;48.834;9.194;2022-11-15T16:14:03;5.10;;;3.40;;
3066;SDS011;1544;48.834;9.194;2022-11-15T16:16:38;3.77;;;3.10;;
3066;SDS011;1544;48.834;9.194;2022-11-15T16:19:13;3.50;;;3.20;;
3066;SDS011;1544;48.834;9.194;2022-11-15T16:21:48;3.10;;;2.80;;
3066;SDS011;1544;48.834;9.194;2022-11-15T16:24:26;3.03;;;2.83;;
3066;SDS011;1544;48.834;9.194;2022-11-15T16:27:01;3.53;;;3.20;;
3066;SDS011;1544;48.834;9.194;2022-11-15T16:29:36;5.60;;;3.10;;
3066;SDS011;1544;48.834;9.194;2022-11-15T16:32:11;4.67;;;3.17;;
3066;SDS011;1544;48.834;9.194;2022-11-15T16:34:46;3.77;;;2.83;;
3066;SDS011;1544;48.834;9.194;2022-11-15T16:37:23;3.40;;;3.10;;
3066;SDS011;1544;48.834;9.194;2022-11-15T16:39:58;4.03;;;3.70;;
3066;SDS011;1544;48.834;9.194;2022-11-15T16:42:34;3.93;;;3.53;;
3066;SDS011;1544;48.834;9.194;2022-11-15T16:45:12;3.87;;;3.40;;
3066;SDS011;1544;48.834;9.194;2022-11-15T16:47:47;6.20;;;4.10;;
3066;SDS011;1544;48.834;9.194;2022-11-15T16:50:24;4.60;;;4.10;;
3066;SDS011;1544;48.834;9.194;2022-11-15T16:53:02;5.40;;;4.90;;
3066;SDS011;1544;48.834;9.194;2022-11-15T16:55:37;4.60;;;4.20;;
3066;SDS011;1544;48.834;9.194;2022-11-15T16:58:12;5.30;;;4.57;;
3066;SDS011;1544;48.834;9.194;2022-11-15T17:00:50;4.80;;;4.40;;
3066;SDS011;1544;48.834;9.194;2022-11-15T17:03:27;4.63;;;4.13;;
3066;SDS011;1544;48.834;9.194;2022-11-15T17:06:03;4.40;;;4.00;;
3066;SDS011;1544;48.834;9.194;2022-11-15T17:08:38;7.20;;;4.80;;
3066;SDS011;1544;48.834;9.194;2022-11-15T17:11:19;6.40;;;5.60;;
3066;SDS011;1544;48.834;9.194;2022-11-15T17:13:58;6.70;;;6.00;;
3066;SDS011;1544;48.834;9.194;2022-11-15T17:16:33;7.63;;;5.00;;
3066;SDS011;1544;48.834;9.194;2022-11-15T17:19:14;6.70;;;6.00;;
3066;SDS011;1544;48.834;9.194;2022-11-15T17:21:52;7.83;;;5.20;;
3066;SDS011;1544;48.834;9.194;2022-11-15T17:24:27;7.47;;;5.47;;
3066;SDS011;1544;48.834;9.194;2022-11-15T17:27:02;5.27;;;4.87;;
3066;SDS011;1544;48.834;9.194;2022-11-15T17:29:37;8.10;;;6.00;;
3066;SDS011;1544;48.834;9.194;2022-11-15T17:32:12;6.43;;;5.13;;
3066;SDS011;1544;48.834;9.194;2022-11-15T17:34:47;5.40;;;5.00;;
3066;SDS011;1544;48.834;9.194;2022-11-15T17:37:22;6.20;;;4.90;;
3066;SDS011;1544;48.834;9.194;2022-11-15T17:39:57;6.87;;;5.63;;
3066;SDS011;1544;48.834;9.194;2022-11-15T17:42:32;4.57;;;4.10;;
3066;SDS011;1544;48.834;9.194;2022-11-15T17:45:07;4.90;;;4.40;;
3066;SDS011;1544;48.834;9.194;2022-11-15T17:47:44;4.40;;;4.10;;
3066;SDS011;1544;48.834;9.194;2022-11-15T17:50:19;6.70;;;4.40;;
3066;SDS011;1544;48.834;9.194;2022-11-15T17:52:54;4.40;;;4.00;;
3066;SDS011;1544;48.834;9.194;2022-11-15T17:55:29;5.60;;;4.13;;
3066;SDS011;1544;48.834;9.194;2022-11-15T17:58:06;5.83;;;3.73;;
3066;SDS011;1544;48.834;9.194;2022-11-15T18:00:41;8.13;;;3.93;;
3066;SDS011;1544;48.834;9.194;2022-11-15T18:03:16;5.60;;;4.30;;
3066;SDS011;1544;48.834;9.194;2022-11-15T18:05:51;4.30;;;3.90;;
3066;SDS011;1544;48.834;9.194;2022-11-15T18:08:26;3.73;;;3.43;;
3066;SDS011;1544;48.834;9.194;2022-11-15T18:11:05;3.40;;;3.20;;
3066;SDS011;1544;48.834;9.194;2022-11-15T18:13:50;4.47;;;4.13;;
3066;SDS011;1544;48.834;9.194;2022-11-15T18:16:30;5.07;;;3.43;;
3066;SDS011;1544;48.834;9.194;2022-11-15T18:19:07;5.23;;;4.33;;
3066;SDS011;1544;48.834;9.194;2022-11-15T18:21:46;8.47;;;4.63;;
3066;SDS011;1544;48.834;9.194;2022-11-15T18:24:31;5.97;;;4.33;;
3066;SDS011;1544;48.834;9.194;2022-11-15T18:27:08;5.40;;;4.23;;
3066;SDS011;1544;48.834;9.194;2022-11-15T18:29:43;4.80;;;4.30;;
3066;SDS011;1544;48.834;9.194;2022-11-15T18:32:18;5.40;;;4.40;;
3066;SDS011;1544;48.834;9.194;2022-11-15T18:34:53;4.30;;;4.00;;
3066;SDS011;1544;48.834;9.194;2022-11-15T18:37:28;4.50;;;4.10;;
3066;SDS011;1544;48.834;9.194;2022-11-15T18:40:04;5.10;;;4.40;;
3066;SDS011;1544;48.834;9.194;2022-11-15T18:42:39;5.20;;;4.60;;
3066;SDS011;1544;48.834;9.194;2022-11-15T18:45:14;5.53;;;5.03;;
3066;SDS011;1544;48.834;9.194;2022-11-15T18:47:57;6.07;;;5.50;;
3066;SDS011;1544;48.834;9.194;2022-11-15T18:50:32;6.67;;;5.47;;
3066;SDS011;1544;48.834;9.194;2022-11-15T18:53:07;7.10;;;5.53;;
3066;SDS011;1544;48.834;9.194;2022-11-15T18:55:41;6.37;;;5.10;;
3066;SDS011;1544;48.834;9.194;2022-11-15T18:58:16;5.50;;;4.90;;
3066;SDS011;1544;48.834;9.194;2022-11-15T19:00:51;7.50;;;5.20;;
3066;SDS011;1544;48.834;9.194;2022-11-15T19:03:39;6.57;;;5.33;;
3066;SDS011;1544;48.834;9.194;2022-11-15T19:06:20;8.13;;;6.50;;
3066;SDS011;1544;48.834;9.194;2022-11-15T19:08:58;6.50;;;5.03;;
3066;SDS011;1544;48.834;9.194;2022-11-15T19:11:34;6.10;;;5.50;;
3066;SDS011;1544;48.834;9.194;2022-11-15T19:14:13;5.87;;;5.27;;
3066;SDS011;1544;48.834;9.194;2022-11-15T19:16:50;6.00;;;5.50;;
3066;SDS011;1544;48.834;9.194;2022-11-15T19:19:26;8.90;;;6.47;;
3066;SDS011;1544;48.834;9.194;2022-11-15T19:22:02;9.23;;;6.43;;
3066;SDS011;1544;48.834;9.194;2022-11-15T19:24:37;8.20;;;7.03;;